Preview of NWS' New Version of Forecast
This preview is not operational and should not be used for support decisions.

Terminal Aerodrome Forecast (TAF)

Issued by National Weather Service (NWS)

                            
000
FTUS45 KBOI 162320
TAFMYL
TAF
KMYL 162320Z 1700/1724 21010KT P6SM -SHRA BKN050 OVC100
      TEMPO 1703/1707 5SM -RA BKN025 OVC050
     FM171100 VRB03KT 1SM BR BKN010 OVC050
     FM171300 VRB03KT P6SM SCT020 BKN060
     FM172100 18002G20KT P6SM VCSH BKN060=